sensor_id;sensor_type;location;lat;lon;timestamp;P1;durP1;ratioP1;P2;durP2;ratioP2
51732;SDS011;39139;53.144;6.244;2024-01-30T00:01:12;37.80;;;29.45;;
51732;SDS011;39139;53.144;6.244;2024-01-30T00:03:38;36.40;;;29.10;;
51732;SDS011;39139;53.144;6.244;2024-01-30T00:06:04;35.60;;;29.58;;
51732;SDS011;39139;53.144;6.244;2024-01-30T00:08:30;37.42;;;29.83;;
51732;SDS011;39139;53.144;6.244;2024-01-30T00:10:55;36.88;;;29.30;;
51732;SDS011;39139;53.144;6.244;2024-01-30T00:13:21;40.83;;;29.95;;
51732;SDS011;39139;53.144;6.244;2024-01-30T00:15:47;38.05;;;30.23;;
51732;SDS011;39139;53.144;6.244;2024-01-30T00:18:13;38.03;;;31.13;;
51732;SDS011;39139;53.144;6.244;2024-01-30T00:20:39;41.40;;;31.63;;
51732;SDS011;39139;53.144;6.244;2024-01-30T00:23:05;37.72;;;29.67;;
51732;SDS011;39139;53.144;6.244;2024-01-30T00:25:31;38.17;;;30.10;;
51732;SDS011;39139;53.144;6.244;2024-01-30T00:27:58;39.65;;;29.15;;
51732;SDS011;39139;53.144;6.244;2024-01-30T00:30:23;36.70;;;28.73;;
51732;SDS011;39139;53.144;6.244;2024-01-30T00:32:49;39.13;;;30.13;;
51732;SDS011;39139;53.144;6.244;2024-01-30T00:35:15;41.58;;;30.17;;
51732;SDS011;39139;53.144;6.244;2024-01-30T00:37:41;35.53;;;29.48;;
51732;SDS011;39139;53.144;6.244;2024-01-30T00:40:06;38.38;;;30.33;;
51732;SDS011;39139;53.144;6.244;2024-01-30T00:42:33;42.08;;;30.85;;
51732;SDS011;39139;53.144;6.244;2024-01-30T00:44:58;40.65;;;30.88;;
51732;SDS011;39139;53.144;6.244;2024-01-30T00:47:24;37.90;;;30.77;;
51732;SDS011;39139;53.144;6.244;2024-01-30T00:49:50;42.80;;;31.80;;
51732;SDS011;39139;53.144;6.244;2024-01-30T00:52:15;42.53;;;31.38;;
51732;SDS011;39139;53.144;6.244;2024-01-30T00:54:41;44.35;;;31.30;;
51732;SDS011;39139;53.144;6.244;2024-01-30T00:57:07;34.97;;;29.58;;
51732;SDS011;39139;53.144;6.244;2024-01-30T00:59:32;35.25;;;29.70;;
51732;SDS011;39139;53.144;6.244;2024-01-30T01:01:58;40.60;;;28.63;;
51732;SDS011;39139;53.144;6.244;2024-01-30T01:04:24;48.13;;;31.58;;
51732;SDS011;39139;53.144;6.244;2024-01-30T01:06:51;34.08;;;26.48;;
51732;SDS011;39139;53.144;6.244;2024-01-30T01:09:17;42.47;;;30.35;;
51732;SDS011;39139;53.144;6.244;2024-01-30T01:11:43;39.55;;;31.90;;
51732;SDS011;39139;53.144;6.244;2024-01-30T01:14:08;39.58;;;29.65;;
51732;SDS011;39139;53.144;6.244;2024-01-30T01:16:34;44.67;;;32.60;;
51732;SDS011;39139;53.144;6.244;2024-01-30T01:19:00;33.92;;;27.98;;
51732;SDS011;39139;53.144;6.244;2024-01-30T01:21:26;42.25;;;31.45;;
51732;SDS011;39139;53.144;6.244;2024-01-30T01:23:51;41.15;;;31.67;;
51732;SDS011;39139;53.144;6.244;2024-01-30T01:26:17;39.97;;;31.55;;
51732;SDS011;39139;53.144;6.244;2024-01-30T01:28:42;40.08;;;32.67;;
51732;SDS011;39139;53.144;6.244;2024-01-30T01:31:08;44.35;;;32.08;;
51732;SDS011;39139;53.144;6.244;2024-01-30T01:33:34;41.58;;;30.60;;
51732;SDS011;39139;53.144;6.244;2024-01-30T01:36:01;35.95;;;29.63;;
51732;SDS011;39139;53.144;6.244;2024-01-30T01:38:28;41.00;;;32.38;;
51732;SDS011;39139;53.144;6.244;2024-01-30T01:40:53;44.38;;;33.10;;
51732;SDS011;39139;53.144;6.244;2024-01-30T01:43:19;41.97;;;32.85;;
51732;SDS011;39139;53.144;6.244;2024-01-30T01:45:45;48.50;;;31.95;;
51732;SDS011;39139;53.144;6.244;2024-01-30T01:48:11;35.03;;;25.17;;
51732;SDS011;39139;53.144;6.244;2024-01-30T01:50:37;42.60;;;33.20;;
51732;SDS011;39139;53.144;6.244;2024-01-30T01:53:03;40.90;;;32.33;;
51732;SDS011;39139;53.144;6.244;2024-01-30T01:55:31;40.05;;;28.50;;
51732;SDS011;39139;53.144;6.244;2024-01-30T01:57:57;42.22;;;34.00;;
51732;SDS011;39139;53.144;6.244;2024-01-30T02:00:23;47.53;;;34.92;;
51732;SDS011;39139;53.144;6.244;2024-01-30T02:02:49;45.20;;;35.35;;
51732;SDS011;39139;53.144;6.244;2024-01-30T02:05:16;44.85;;;32.83;;
51732;SDS011;39139;53.144;6.244;2024-01-30T02:07:43;45.38;;;33.58;;
51732;SDS011;39139;53.144;6.244;2024-01-30T02:10:09;46.35;;;34.42;;
51732;SDS011;39139;53.144;6.244;2024-01-30T02:12:35;46.30;;;35.08;;
51732;SDS011;39139;53.144;6.244;2024-01-30T02:15:00;43.97;;;33.30;;
51732;SDS011;39139;53.144;6.244;2024-01-30T02:17:26;42.28;;;32.85;;
51732;SDS011;39139;53.144;6.244;2024-01-30T02:19:52;36.70;;;29.75;;
51732;SDS011;39139;53.144;6.244;2024-01-30T02:22:17;43.17;;;32.67;;
51732;SDS011;39139;53.144;6.244;2024-01-30T02:24:45;42.33;;;32.47;;
51732;SDS011;39139;53.144;6.244;2024-01-30T02:27:10;43.40;;;33.72;;
51732;SDS011;39139;53.144;6.244;2024-01-30T02:29:36;44.40;;;34.30;;
51732;SDS011;39139;53.144;6.244;2024-01-30T02:32:02;43.13;;;33.35;;
51732;SDS011;39139;53.144;6.244;2024-01-30T02:34:28;38.30;;;32.90;;
51732;SDS011;39139;53.144;6.244;2024-01-30T02:36:53;41.85;;;33.20;;
51732;SDS011;39139;53.144;6.244;2024-01-30T02:39:19;45.42;;;31.27;;
51732;SDS011;39139;53.144;6.244;2024-01-30T02:41:45;43.92;;;34.40;;
51732;SDS011;39139;53.144;6.244;2024-01-30T02:44:11;42.65;;;32.95;;
51732;SDS011;39139;53.144;6.244;2024-01-30T02:46:37;46.95;;;32.85;;
51732;SDS011;39139;53.144;6.244;2024-01-30T02:49:02;47.20;;;34.95;;
51732;SDS011;39139;53.144;6.244;2024-01-30T02:51:28;42.78;;;34.28;;
51732;SDS011;39139;53.144;6.244;2024-01-30T02:53:54;43.08;;;34.53;;
51732;SDS011;39139;53.144;6.244;2024-01-30T02:56:19;40.85;;;33.05;;
51732;SDS011;39139;53.144;6.244;2024-01-30T02:58:45;47.40;;;34.17;;
51732;SDS011;39139;53.144;6.244;2024-01-30T03:01:10;42.67;;;33.67;;
51732;SDS011;39139;53.144;6.244;2024-01-30T03:03:36;44.05;;;31.30;;
51732;SDS011;39139;53.144;6.244;2024-01-30T03:06:01;45.10;;;33.83;;
51732;SDS011;39139;53.144;6.244;2024-01-30T03:08:27;41.33;;;33.47;;
51732;SDS011;39139;53.144;6.244;2024-01-30T03:10:53;45.88;;;32.72;;
51732;SDS011;39139;53.144;6.244;2024-01-30T03:13:19;43.60;;;33.70;;
51732;SDS011;39139;53.144;6.244;2024-01-30T03:15:45;46.75;;;34.50;;
51732;SDS011;39139;53.144;6.244;2024-01-30T03:18:10;43.50;;;34.85;;
51732;SDS011;39139;53.144;6.244;2024-01-30T03:20:36;47.28;;;33.58;;
51732;SDS011;39139;53.144;6.244;2024-01-30T03:23:01;41.03;;;32.90;;
51732;SDS011;39139;53.144;6.244;2024-01-30T03:25:27;42.65;;;33.03;;
51732;SDS011;39139;53.144;6.244;2024-01-30T03:27:53;37.30;;;29.35;;
51732;SDS011;39139;53.144;6.244;2024-01-30T03:30:18;47.42;;;32.80;;
51732;SDS011;39139;53.144;6.244;2024-01-30T03:32:44;43.00;;;31.58;;
51732;SDS011;39139;53.144;6.244;2024-01-30T03:35:10;36.10;;;27.42;;
51732;SDS011;39139;53.144;6.244;2024-01-30T03:37:35;29.90;;;22.13;;
51732;SDS011;39139;53.144;6.244;2024-01-30T03:40:02;35.75;;;30.40;;
51732;SDS011;39139;53.144;6.244;2024-01-30T03:42:28;38.65;;;31.75;;
51732;SDS011;39139;53.144;6.244;2024-01-30T03:44:53;43.25;;;32.13;;
51732;SDS011;39139;53.144;6.244;2024-01-30T03:47:20;31.90;;;25.35;;
51732;SDS011;39139;53.144;6.244;2024-01-30T03:49:46;40.38;;;30.08;;
51732;SDS011;39139;53.144;6.244;2024-01-30T03:52:12;42.63;;;31.85;;
51732;SDS011;39139;53.144;6.244;2024-01-30T03:54:37;38.30;;;30.15;;
51732;SDS011;39139;53.144;6.244;2024-01-30T03:57:03;37.28;;;29.95;;
51732;SDS011;39139;53.144;6.244;2024-01-30T03:59:29;36.55;;;24.90;;
51732;SDS011;39139;53.144;6.244;2024-01-30T04:01:55;35.28;;;29.80;;
51732;SDS011;39139;53.144;6.244;2024-01-30T04:04:21;39.28;;;30.77;;
51732;SDS011;39139;53.144;6.244;2024-01-30T04:06:46;31.85;;;26.80;;
51732;SDS011;39139;53.144;6.244;2024-01-30T04:09:12;42.38;;;29.85;;
51732;SDS011;39139;53.144;6.244;2024-01-30T04:11:41;32.17;;;25.65;;
51732;SDS011;39139;53.144;6.244;2024-01-30T04:14:07;34.70;;;27.80;;
51732;SDS011;39139;53.144;6.244;2024-01-30T04:16:33;34.08;;;29.02;;
51732;SDS011;39139;53.144;6.244;2024-01-30T04:18:59;33.47;;;28.40;;
51732;SDS011;39139;53.144;6.244;2024-01-30T04:21:25;34.83;;;28.15;;
51732;SDS011;39139;53.144;6.244;2024-01-30T04:23:51;34.58;;;28.15;;
51732;SDS011;39139;53.144;6.244;2024-01-30T04:26:17;33.40;;;27.02;;
51732;SDS011;39139;53.144;6.244;2024-01-30T04:28:45;35.03;;;27.38;;
51732;SDS011;39139;53.144;6.244;2024-01-30T04:31:11;33.28;;;23.58;;
51732;SDS011;39139;53.144;6.244;2024-01-30T04:33:37;29.73;;;25.88;;
51732;SDS011;39139;53.144;6.244;2024-01-30T04:36:03;28.90;;;22.95;;
51732;SDS011;39139;53.144;6.244;2024-01-30T04:38:29;32.97;;;26.88;;
51732;SDS011;39139;53.144;6.244;2024-01-30T04:40:56;34.08;;;26.45;;
51732;SDS011;39139;53.144;6.244;2024-01-30T04:43:22;33.00;;;25.80;;
51732;SDS011;39139;53.144;6.244;2024-01-30T04:45:47;29.65;;;26.00;;
51732;SDS011;39139;53.144;6.244;2024-01-30T04:48:14;31.88;;;25.63;;
51732;SDS011;39139;53.144;6.244;2024-01-30T04:50:39;32.28;;;26.20;;
51732;SDS011;39139;53.144;6.244;2024-01-30T04:53:05;31.55;;;24.85;;
51732;SDS011;39139;53.144;6.244;2024-01-30T04:55:31;33.30;;;23.08;;
51732;SDS011;39139;53.144;6.244;2024-01-30T04:57:56;30.73;;;24.13;;
51732;SDS011;39139;53.144;6.244;2024-01-30T05:00:22;30.77;;;24.23;;
51732;SDS011;39139;53.144;6.244;2024-01-30T05:02:47;32.50;;;25.10;;
51732;SDS011;39139;53.144;6.244;2024-01-30T05:05:13;29.85;;;23.52;;
51732;SDS011;39139;53.144;6.244;2024-01-30T05:07:40;35.25;;;24.08;;
51732;SDS011;39139;53.144;6.244;2024-01-30T05:10:06;28.83;;;23.25;;
51732;SDS011;39139;53.144;6.244;2024-01-30T05:12:33;30.92;;;25.13;;
51732;SDS011;39139;53.144;6.244;2024-01-30T05:14:59;26.90;;;22.33;;
51732;SDS011;39139;53.144;6.244;2024-01-30T05:17:24;34.00;;;24.75;;
51732;SDS011;39139;53.144;6.244;2024-01-30T05:19:50;26.48;;;22.60;;
51732;SDS011;39139;53.144;6.244;2024-01-30T05:22:15;26.58;;;22.83;;
51732;SDS011;39139;53.144;6.244;2024-01-30T05:24:43;30.88;;;24.23;;
51732;SDS011;39139;53.144;6.244;2024-01-30T05:27:09;26.63;;;22.52;;
51732;SDS011;39139;53.144;6.244;2024-01-30T05:29:35;29.08;;;22.50;;
51732;SDS011;39139;53.144;6.244;2024-01-30T05:32:01;28.70;;;23.35;;
51732;SDS011;39139;53.144;6.244;2024-01-30T05:34:27;33.80;;;22.85;;
51732;SDS011;39139;53.144;6.244;2024-01-30T05:36:52;23.50;;;20.50;;
51732;SDS011;39139;53.144;6.244;2024-01-30T05:39:18;25.05;;;22.33;;
51732;SDS011;39139;53.144;6.244;2024-01-30T05:41:43;30.02;;;23.58;;
51732;SDS011;39139;53.144;6.244;2024-01-30T05:44:09;31.17;;;22.30;;
51732;SDS011;39139;53.144;6.244;2024-01-30T05:46:35;31.25;;;22.30;;
51732;SDS011;39139;53.144;6.244;2024-01-30T05:49:00;25.02;;;21.83;;
51732;SDS011;39139;53.144;6.244;2024-01-30T05:51:26;27.70;;;22.65;;
51732;SDS011;39139;53.144;6.244;2024-01-30T05:53:53;24.08;;;19.27;;
51732;SDS011;39139;53.144;6.244;2024-01-30T05:56:19;29.20;;;22.65;;
51732;SDS011;39139;53.144;6.244;2024-01-30T05:58:44;27.23;;;22.42;;
51732;SDS011;39139;53.144;6.244;2024-01-30T06:01:10;28.63;;;21.25;;
51732;SDS011;39139;53.144;6.244;2024-01-30T06:03:36;28.20;;;22.92;;
51732;SDS011;39139;53.144;6.244;2024-01-30T06:06:02;29.75;;;22.50;;
51732;SDS011;39139;53.144;6.244;2024-01-30T06:08:27;28.67;;;22.15;;
51732;SDS011;39139;53.144;6.244;2024-01-30T06:10:53;29.23;;;22.27;;
51732;SDS011;39139;53.144;6.244;2024-01-30T06:13:19;26.63;;;22.35;;
51732;SDS011;39139;53.144;6.244;2024-01-30T06:15:45;27.15;;;21.15;;
51732;SDS011;39139;53.144;6.244;2024-01-30T06:18:10;31.25;;;21.48;;
51732;SDS011;39139;53.144;6.244;2024-01-30T06:20:36;26.67;;;21.17;;
51732;SDS011;39139;53.144;6.244;2024-01-30T06:23:01;28.02;;;22.08;;
51732;SDS011;39139;53.144;6.244;2024-01-30T06:25:27;24.17;;;19.45;;
51732;SDS011;39139;53.144;6.244;2024-01-30T06:27:53;26.08;;;21.75;;
51732;SDS011;39139;53.144;6.244;2024-01-30T06:30:19;28.15;;;21.25;;
51732;SDS011;39139;53.144;6.244;2024-01-30T06:32:44;24.40;;;20.80;;
51732;SDS011;39139;53.144;6.244;2024-01-30T06:35:10;25.23;;;20.55;;
51732;SDS011;39139;53.144;6.244;2024-01-30T06:37:36;22.90;;;19.52;;
51732;SDS011;39139;53.144;6.244;2024-01-30T06:40:02;25.88;;;21.38;;
51732;SDS011;39139;53.144;6.244;2024-01-30T06:42:29;27.35;;;20.35;;
51732;SDS011;39139;53.144;6.244;2024-01-30T06:44:55;27.63;;;20.85;;
51732;SDS011;39139;53.144;6.244;2024-01-30T06:47:21;26.42;;;20.75;;
51732;SDS011;39139;53.144;6.244;2024-01-30T06:49:46;24.60;;;18.95;;
51732;SDS011;39139;53.144;6.244;2024-01-30T06:52:12;24.95;;;20.33;;
51732;SDS011;39139;53.144;6.244;2024-01-30T06:54:38;23.25;;;20.48;;
51732;SDS011;39139;53.144;6.244;2024-01-30T06:57:04;22.05;;;19.02;;
51732;SDS011;39139;53.144;6.244;2024-01-30T06:59:34;26.55;;;20.63;;
51732;SDS011;39139;53.144;6.244;2024-01-30T07:02:00;27.55;;;20.95;;
51732;SDS011;39139;53.144;6.244;2024-01-30T07:04:25;31.92;;;21.55;;
51732;SDS011;39139;53.144;6.244;2024-01-30T07:06:51;25.05;;;20.88;;
51732;SDS011;39139;53.144;6.244;2024-01-30T07:09:18;23.45;;;20.60;;
51732;SDS011;39139;53.144;6.244;2024-01-30T07:11:44;24.38;;;20.30;;
51732;SDS011;39139;53.144;6.244;2024-01-30T07:14:09;27.83;;;19.38;;
51732;SDS011;39139;53.144;6.244;2024-01-30T07:16:35;22.45;;;20.05;;
51732;SDS011;39139;53.144;6.244;2024-01-30T07:19:01;25.27;;;20.25;;
51732;SDS011;39139;53.144;6.244;2024-01-30T07:21:27;22.35;;;19.23;;
51732;SDS011;39139;53.144;6.244;2024-01-30T07:23:56;21.70;;;18.70;;
51732;SDS011;39139;53.144;6.244;2024-01-30T07:26:22;25.40;;;19.98;;
51732;SDS011;39139;53.144;6.244;2024-01-30T07:28:48;24.92;;;18.40;;
51732;SDS011;39139;53.144;6.244;2024-01-30T07:31:15;26.20;;;19.45;;
51732;SDS011;39139;53.144;6.244;2024-01-30T07:33:40;21.63;;;18.25;;
51732;SDS011;39139;53.144;6.244;2024-01-30T07:36:06;22.27;;;18.45;;
51732;SDS011;39139;53.144;6.244;2024-01-30T07:38:32;24.52;;;18.42;;
51732;SDS011;39139;53.144;6.244;2024-01-30T07:40:57;25.50;;;19.45;;
51732;SDS011;39139;53.144;6.244;2024-01-30T07:43:23;23.27;;;19.08;;
51732;SDS011;39139;53.144;6.244;2024-01-30T07:45:49;24.25;;;19.65;;
51732;SDS011;39139;53.144;6.244;2024-01-30T07:48:14;27.48;;;19.23;;
51732;SDS011;39139;53.144;6.244;2024-01-30T07:50:40;24.63;;;19.40;;
51732;SDS011;39139;53.144;6.244;2024-01-30T07:53:06;23.70;;;19.45;;
51732;SDS011;39139;53.144;6.244;2024-01-30T07:55:32;25.15;;;19.02;;
51732;SDS011;39139;53.144;6.244;2024-01-30T07:57:57;22.63;;;18.42;;
51732;SDS011;39139;53.144;6.244;2024-01-30T08:00:26;26.87;;;19.10;;
51732;SDS011;39139;53.144;6.244;2024-01-30T08:02:54;22.90;;;19.40;;
51732;SDS011;39139;53.144;6.244;2024-01-30T08:05:20;24.67;;;19.38;;
51732;SDS011;39139;53.144;6.244;2024-01-30T08:07:47;24.38;;;18.02;;
51732;SDS011;39139;53.144;6.244;2024-01-30T08:10:14;21.23;;;17.45;;
51732;SDS011;39139;53.144;6.244;2024-01-30T08:12:40;26.33;;;18.60;;
51732;SDS011;39139;53.144;6.244;2024-01-30T08:15:05;24.27;;;19.23;;
51732;SDS011;39139;53.144;6.244;2024-01-30T08:17:32;25.35;;;19.10;;
51732;SDS011;39139;53.144;6.244;2024-01-30T08:19:58;25.60;;;18.95;;
51732;SDS011;39139;53.144;6.244;2024-01-30T08:22:23;21.90;;;18.02;;
51732;SDS011;39139;53.144;6.244;2024-01-30T08:24:49;21.90;;;18.20;;
51732;SDS011;39139;53.144;6.244;2024-01-30T08:27:15;21.67;;;18.00;;
51732;SDS011;39139;53.144;6.244;2024-01-30T08:29:40;26.15;;;18.70;;
51732;SDS011;39139;53.144;6.244;2024-01-30T08:32:06;22.15;;;18.15;;
51732;SDS011;39139;53.144;6.244;2024-01-30T08:34:32;24.33;;;18.63;;
51732;SDS011;39139;53.144;6.244;2024-01-30T08:36:58;26.02;;;18.95;;
51732;SDS011;39139;53.144;6.244;2024-01-30T08:39:24;23.00;;;18.75;;
51732;SDS011;39139;53.144;6.244;2024-01-30T08:41:49;20.33;;;17.88;;
51732;SDS011;39139;53.144;6.244;2024-01-30T08:44:15;22.08;;;17.33;;
51732;SDS011;39139;53.144;6.244;2024-01-30T08:46:42;26.42;;;18.25;;
51732;SDS011;39139;53.144;6.244;2024-01-30T08:49:09;24.17;;;18.83;;
51732;SDS011;39139;53.144;6.244;2024-01-30T08:51:35;19.58;;;17.52;;
51732;SDS011;39139;53.144;6.244;2024-01-30T08:54:01;23.92;;;16.40;;
51732;SDS011;39139;53.144;6.244;2024-01-30T08:56:27;27.00;;;18.63;;
51732;SDS011;39139;53.144;6.244;2024-01-30T08:58:52;28.17;;;18.50;;
51732;SDS011;39139;53.144;6.244;2024-01-30T09:01:18;21.58;;;17.25;;
51732;SDS011;39139;53.144;6.244;2024-01-30T09:03:43;24.67;;;18.13;;
51732;SDS011;39139;53.144;6.244;2024-01-30T09:06:11;23.88;;;17.27;;
51732;SDS011;39139;53.144;6.244;2024-01-30T09:08:37;27.88;;;17.73;;
51732;SDS011;39139;53.144;6.244;2024-01-30T09:11:11;22.45;;;17.48;;
51732;SDS011;39139;53.144;6.244;2024-01-30T09:13:38;20.73;;;18.05;;
51732;SDS011;39139;53.144;6.244;2024-01-30T09:16:04;22.13;;;16.40;;
51732;SDS011;39139;53.144;6.244;2024-01-30T09:18:30;22.73;;;17.80;;
51732;SDS011;39139;53.144;6.244;2024-01-30T09:20:56;21.00;;;17.55;;
51732;SDS011;39139;53.144;6.244;2024-01-30T09:23:21;22.08;;;16.58;;
51732;SDS011;39139;53.144;6.244;2024-01-30T09:25:47;22.65;;;17.98;;
51732;SDS011;39139;53.144;6.244;2024-01-30T09:28:13;31.02;;;17.88;;
51732;SDS011;39139;53.144;6.244;2024-01-30T09:30:39;20.33;;;16.05;;
51732;SDS011;39139;53.144;6.244;2024-01-30T09:33:05;20.90;;;16.60;;
51732;SDS011;39139;53.144;6.244;2024-01-30T09:35:31;23.42;;;16.55;;
51732;SDS011;39139;53.144;6.244;2024-01-30T09:37:57;27.67;;;17.70;;
51732;SDS011;39139;53.144;6.244;2024-01-30T09:40:23;24.15;;;16.98;;
51732;SDS011;39139;53.144;6.244;2024-01-30T09:42:52;26.92;;;17.60;;
51732;SDS011;39139;53.144;6.244;2024-01-30T09:45:19;24.75;;;16.85;;
51732;SDS011;39139;53.144;6.244;2024-01-30T09:47:49;24.05;;;17.42;;
51732;SDS011;39139;53.144;6.244;2024-01-30T09:50:15;19.65;;;17.38;;
51732;SDS011;39139;53.144;6.244;2024-01-30T09:52:42;27.45;;;17.30;;
51732;SDS011;39139;53.144;6.244;2024-01-30T09:55:09;27.05;;;17.83;;
51732;SDS011;39139;53.144;6.244;2024-01-30T09:57:35;27.83;;;18.30;;
51732;SDS011;39139;53.144;6.244;2024-01-30T10:00:01;24.80;;;19.08;;
51732;SDS011;39139;53.144;6.244;2024-01-30T10:02:28;26.42;;;17.02;;
51732;SDS011;39139;53.144;6.244;2024-01-30T10:04:56;19.33;;;16.88;;
51732;SDS011;39139;53.144;6.244;2024-01-30T10:07:22;24.55;;;18.15;;
51732;SDS011;39139;53.144;6.244;2024-01-30T10:09:48;25.50;;;17.92;;
51732;SDS011;39139;53.144;6.244;2024-01-30T10:12:14;25.92;;;16.88;;
51732;SDS011;39139;53.144;6.244;2024-01-30T10:14:41;23.83;;;18.25;;
51732;SDS011;39139;53.144;6.244;2024-01-30T10:17:08;30.88;;;18.30;;
51732;SDS011;39139;53.144;6.244;2024-01-30T10:19:35;24.02;;;17.50;;
51732;SDS011;39139;53.144;6.244;2024-01-30T10:22:01;24.50;;;17.77;;
51732;SDS011;39139;53.144;6.244;2024-01-30T10:24:27;25.92;;;17.95;;
51732;SDS011;39139;53.144;6.244;2024-01-30T10:26:54;30.77;;;18.05;;
51732;SDS011;39139;53.144;6.244;2024-01-30T10:29:20;26.30;;;18.55;;
51732;SDS011;39139;53.144;6.244;2024-01-30T10:31:56;26.88;;;16.83;;
51732;SDS011;39139;53.144;6.244;2024-01-30T10:34:23;26.38;;;18.15;;
51732;SDS011;39139;53.144;6.244;2024-01-30T10:36:49;23.55;;;16.58;;
51732;SDS011;39139;53.144;6.244;2024-01-30T10:39:16;21.45;;;16.77;;
51732;SDS011;39139;53.144;6.244;2024-01-30T10:41:45;23.23;;;15.80;;
51732;SDS011;39139;53.144;6.244;2024-01-30T10:44:13;21.75;;;14.93;;
51732;SDS011;39139;53.144;6.244;2024-01-30T10:46:47;25.60;;;15.13;;
51732;SDS011;39139;53.144;6.244;2024-01-30T10:49:21;22.45;;;14.25;;
51732;SDS011;39139;53.144;6.244;2024-01-30T10:51:48;22.35;;;12.70;;
51732;SDS011;39139;53.144;6.244;2024-01-30T10:54:15;23.17;;;11.90;;
51732;SDS011;39139;53.144;6.244;2024-01-30T10:56:42;22.65;;;10.57;;
51732;SDS011;39139;53.144;6.244;2024-01-30T10:59:08;19.15;;;12.35;;
51732;SDS011;39139;53.144;6.244;2024-01-30T11:01:35;21.83;;;11.40;;
51732;SDS011;39139;53.144;6.244;2024-01-30T11:04:01;22.55;;;10.60;;
51732;SDS011;39139;53.144;6.244;2024-01-30T11:06:26;17.55;;;9.23;;
51732;SDS011;39139;53.144;6.244;2024-01-30T11:09:02;21.65;;;10.07;;
51732;SDS011;39139;53.144;6.244;2024-01-30T11:11:48;22.83;;;10.73;;
51732;SDS011;39139;53.144;6.244;2024-01-30T11:14:22;24.83;;;10.85;;
51732;SDS011;39139;53.144;6.244;2024-01-30T11:16:50;17.30;;;9.82;;
51732;SDS011;39139;53.144;6.244;2024-01-30T11:19:15;21.30;;;10.23;;
51732;SDS011;39139;53.144;6.244;2024-01-30T11:21:49;14.93;;;8.55;;
51732;SDS011;39139;53.144;6.244;2024-01-30T11:24:18;17.65;;;8.73;;
51732;SDS011;39139;53.144;6.244;2024-01-30T11:26:58;18.27;;;7.65;;
51732;SDS011;39139;53.144;6.244;2024-01-30T11:29:24;13.90;;;6.75;;
51732;SDS011;39139;53.144;6.244;2024-01-30T11:31:57;11.32;;;4.32;;
51732;SDS011;39139;53.144;6.244;2024-01-30T11:34:24;11.10;;;4.65;;
51732;SDS011;39139;53.144;6.244;2024-01-30T11:36:55;15.55;;;3.58;;
51732;SDS011;39139;53.144;6.244;2024-01-30T11:39:26;7.43;;;2.70;;
51732;SDS011;39139;53.144;6.244;2024-01-30T11:41:54;7.07;;;2.70;;
51732;SDS011;39139;53.144;6.244;2024-01-30T11:44:20;5.97;;;1.90;;
51732;SDS011;39139;53.144;6.244;2024-01-30T11:46:50;9.70;;;1.83;;
51732;SDS011;39139;53.144;6.244;2024-01-30T11:49:17;2.70;;;1.38;;
51732;SDS011;39139;53.144;6.244;2024-01-30T11:51:43;9.75;;;1.92;;
51732;SDS011;39139;53.144;6.244;2024-01-30T11:54:10;4.47;;;1.27;;
51732;SDS011;39139;53.144;6.244;2024-01-30T11:56:37;2.88;;;0.90;;
51732;SDS011;39139;53.144;6.244;2024-01-30T11:59:03;4.95;;;0.95;;
51732;SDS011;39139;53.144;6.244;2024-01-30T12:01:29;4.75;;;0.98;;
51732;SDS011;39139;53.144;6.244;2024-01-30T12:03:56;4.95;;;0.88;;
51732;SDS011;39139;53.144;6.244;2024-01-30T12:06:23;3.30;;;1.23;;
51732;SDS011;39139;53.144;6.244;2024-01-30T12:09:01;4.28;;;1.08;;
51732;SDS011;39139;53.144;6.244;2024-01-30T12:11:42;4.32;;;1.33;;
51732;SDS011;39139;53.144;6.244;2024-01-30T12:14:09;6.95;;;1.45;;
51732;SDS011;39139;53.144;6.244;2024-01-30T12:16:35;7.25;;;1.10;;
51732;SDS011;39139;53.144;6.244;2024-01-30T12:19:00;8.52;;;1.90;;
51732;SDS011;39139;53.144;6.244;2024-01-30T12:21:27;9.15;;;1.42;;
51732;SDS011;39139;53.144;6.244;2024-01-30T12:23:53;4.72;;;1.60;;
51732;SDS011;39139;53.144;6.244;2024-01-30T12:26:19;5.28;;;1.42;;
51732;SDS011;39139;53.144;6.244;2024-01-30T12:28:48;2.90;;;0.88;;
51732;SDS011;39139;53.144;6.244;2024-01-30T12:31:17;6.75;;;1.52;;
51732;SDS011;39139;53.144;6.244;2024-01-30T12:33:43;9.68;;;1.38;;
51732;SDS011;39139;53.144;6.244;2024-01-30T12:36:08;7.07;;;1.50;;
51732;SDS011;39139;53.144;6.244;2024-01-30T12:38:34;4.82;;;1.27;;
51732;SDS011;39139;53.144;6.244;2024-01-30T12:41:00;7.38;;;1.73;;
51732;SDS011;39139;53.144;6.244;2024-01-30T12:43:25;3.88;;;1.15;;
51732;SDS011;39139;53.144;6.244;2024-01-30T12:45:54;6.03;;;1.13;;
51732;SDS011;39139;53.144;6.244;2024-01-30T12:48:20;4.18;;;0.98;;
51732;SDS011;39139;53.144;6.244;2024-01-30T12:50:45;8.20;;;1.08;;
51732;SDS011;39139;53.144;6.244;2024-01-30T12:53:11;2.10;;;1.05;;
51732;SDS011;39139;53.144;6.244;2024-01-30T12:55:38;5.57;;;1.10;;
51732;SDS011;39139;53.144;6.244;2024-01-30T12:58:03;3.75;;;1.08;;
51732;SDS011;39139;53.144;6.244;2024-01-30T13:00:29;3.28;;;1.02;;
51732;SDS011;39139;53.144;6.244;2024-01-30T13:02:55;1.52;;;0.47;;
51732;SDS011;39139;53.144;6.244;2024-01-30T13:05:20;2.13;;;0.65;;
51732;SDS011;39139;53.144;6.244;2024-01-30T13:07:46;1.95;;;0.32;;
51732;SDS011;39139;53.144;6.244;2024-01-30T13:10:12;1.45;;;0.55;;
51732;SDS011;39139;53.144;6.244;2024-01-30T13:12:37;3.05;;;0.60;;
51732;SDS011;39139;53.144;6.244;2024-01-30T13:15:03;3.22;;;0.70;;
51732;SDS011;39139;53.144;6.244;2024-01-30T13:17:30;4.03;;;0.70;;
51732;SDS011;39139;53.144;6.244;2024-01-30T13:19:56;2.28;;;0.73;;
51732;SDS011;39139;53.144;6.244;2024-01-30T13:22:23;3.42;;;0.85;;
51732;SDS011;39139;53.144;6.244;2024-01-30T13:24:49;3.58;;;0.68;;
51732;SDS011;39139;53.144;6.244;2024-01-30T13:27:15;3.63;;;1.30;;
51732;SDS011;39139;53.144;6.244;2024-01-30T13:29:41;1.90;;;1.05;;
51732;SDS011;39139;53.144;6.244;2024-01-30T13:32:07;6.45;;;1.67;;
51732;SDS011;39139;53.144;6.244;2024-01-30T13:34:32;2.95;;;1.13;;
51732;SDS011;39139;53.144;6.244;2024-01-30T13:36:58;6.03;;;1.08;;
51732;SDS011;39139;53.144;6.244;2024-01-30T13:39:24;4.40;;;0.98;;
51732;SDS011;39139;53.144;6.244;2024-01-30T13:41:49;8.23;;;1.30;;
51732;SDS011;39139;53.144;6.244;2024-01-30T13:44:15;3.83;;;0.73;;
51732;SDS011;39139;53.144;6.244;2024-01-30T13:49:11;5.90;;;0.93;;
51732;SDS011;39139;53.144;6.244;2024-01-30T13:51:36;5.07;;;0.98;;
51732;SDS011;39139;53.144;6.244;2024-01-30T13:54:02;4.20;;;0.90;;
51732;SDS011;39139;53.144;6.244;2024-01-30T13:56:28;2.15;;;0.98;;
51732;SDS011;39139;53.144;6.244;2024-01-30T13:58:55;3.20;;;1.00;;
51732;SDS011;39139;53.144;6.244;2024-01-30T14:01:21;5.00;;;1.27;;
51732;SDS011;39139;53.144;6.244;2024-01-30T14:03:47;3.05;;;0.60;;
51732;SDS011;39139;53.144;6.244;2024-01-30T14:06:13;4.45;;;1.20;;
51732;SDS011;39139;53.144;6.244;2024-01-30T14:08:39;2.00;;;1.00;;
51732;SDS011;39139;53.144;6.244;2024-01-30T14:11:05;3.55;;;1.20;;
51732;SDS011;39139;53.144;6.244;2024-01-30T14:13:30;1.10;;;1.10;;
51732;SDS011;39139;53.144;6.244;2024-01-30T14:15:57;1.60;;;1.33;;
51732;SDS011;39139;53.144;6.244;2024-01-30T14:18:23;3.35;;;1.83;;
51732;SDS011;39139;53.144;6.244;2024-01-30T14:20:50;5.97;;;2.08;;
51732;SDS011;39139;53.144;6.244;2024-01-30T14:23:17;3.30;;;2.08;;